sensor_id;sensor_type;location;lat;lon;timestamp;P1;durP1;ratioP1;P2;durP2;ratioP2
28766;SDS011;15921;52.034;20.650;2023-03-31T00:00:55;29.38;;;15.43;;
28766;SDS011;15921;52.034;20.650;2023-03-31T00:03:22;29.63;;;15.65;;
28766;SDS011;15921;52.034;20.650;2023-03-31T00:05:49;24.05;;;14.70;;
28766;SDS011;15921;52.034;20.650;2023-03-31T00:08:22;26.80;;;15.18;;
28766;SDS011;15921;52.034;20.650;2023-03-31T00:10:48;26.77;;;15.48;;
28766;SDS011;15921;52.034;20.650;2023-03-31T00:13:15;24.70;;;13.90;;
28766;SDS011;15921;52.034;20.650;2023-03-31T00:15:41;25.27;;;14.65;;
28766;SDS011;15921;52.034;20.650;2023-03-31T00:18:07;24.00;;;13.90;;
28766;SDS011;15921;52.034;20.650;2023-03-31T00:20:32;25.90;;;15.50;;
28766;SDS011;15921;52.034;20.650;2023-03-31T00:23:02;23.23;;;13.65;;
28766;SDS011;15921;52.034;20.650;2023-03-31T00:25:34;21.08;;;13.80;;
28766;SDS011;15921;52.034;20.650;2023-03-31T00:28:04;21.25;;;13.32;;
28766;SDS011;15921;52.034;20.650;2023-03-31T00:30:30;21.27;;;12.25;;
28766;SDS011;15921;52.034;20.650;2023-03-31T00:32:56;23.42;;;13.90;;
28766;SDS011;15921;52.034;20.650;2023-03-31T00:35:21;24.05;;;13.43;;
28766;SDS011;15921;52.034;20.650;2023-03-31T00:37:47;24.92;;;13.73;;
28766;SDS011;15921;52.034;20.650;2023-03-31T00:40:13;24.40;;;13.07;;
28766;SDS011;15921;52.034;20.650;2023-03-31T00:42:42;22.13;;;13.77;;
28766;SDS011;15921;52.034;20.650;2023-03-31T00:47:43;24.33;;;13.43;;
28766;SDS011;15921;52.034;20.650;2023-03-31T00:50:14;22.70;;;13.95;;
28766;SDS011;15921;52.034;20.650;2023-03-31T00:52:44;26.42;;;14.75;;
28766;SDS011;15921;52.034;20.650;2023-03-31T00:55:16;21.23;;;13.13;;
28766;SDS011;15921;52.034;20.650;2023-03-31T00:57:46;26.92;;;13.57;;
28766;SDS011;15921;52.034;20.650;2023-03-31T01:00:13;20.27;;;11.63;;
28766;SDS011;15921;52.034;20.650;2023-03-31T01:02:47;21.00;;;11.30;;
28766;SDS011;15921;52.034;20.650;2023-03-31T01:05:23;18.35;;;11.55;;
28766;SDS011;15921;52.034;20.650;2023-03-31T01:07:51;21.92;;;12.43;;
28766;SDS011;15921;52.034;20.650;2023-03-31T01:10:19;21.30;;;11.55;;
28766;SDS011;15921;52.034;20.650;2023-03-31T01:12:47;21.50;;;11.70;;
28766;SDS011;15921;52.034;20.650;2023-03-31T01:15:16;19.05;;;10.63;;
28766;SDS011;15921;52.034;20.650;2023-03-31T01:17:43;20.55;;;10.38;;
28766;SDS011;15921;52.034;20.650;2023-03-31T01:23:14;16.08;;;9.30;;
28766;SDS011;15921;52.034;20.650;2023-03-31T01:28:44;16.80;;;8.63;;
28766;SDS011;15921;52.034;20.650;2023-03-31T01:31:20;16.50;;;9.13;;
28766;SDS011;15921;52.034;20.650;2023-03-31T01:36:54;16.08;;;8.50;;
28766;SDS011;15921;52.034;20.650;2023-03-31T01:39:57;14.60;;;8.50;;
28766;SDS011;15921;52.034;20.650;2023-03-31T01:48:15;12.75;;;7.88;;
28766;SDS011;15921;52.034;20.650;2023-03-31T01:50:57;12.43;;;7.47;;
28766;SDS011;15921;52.034;20.650;2023-03-31T01:53:34;13.73;;;8.00;;
28766;SDS011;15921;52.034;20.650;2023-03-31T01:56:07;13.07;;;7.75;;
28766;SDS011;15921;52.034;20.650;2023-03-31T01:58:40;12.43;;;7.20;;
28766;SDS011;15921;52.034;20.650;2023-03-31T02:01:16;13.43;;;7.57;;
28766;SDS011;15921;52.034;20.650;2023-03-31T02:03:53;14.05;;;7.40;;
28766;SDS011;15921;52.034;20.650;2023-03-31T02:06:26;11.68;;;7.32;;
28766;SDS011;15921;52.034;20.650;2023-03-31T02:08:56;14.68;;;7.03;;
28766;SDS011;15921;52.034;20.650;2023-03-31T02:11:27;12.18;;;6.90;;
28766;SDS011;15921;52.034;20.650;2023-03-31T02:13:53;15.63;;;6.88;;
28766;SDS011;15921;52.034;20.650;2023-03-31T02:16:26;13.75;;;7.03;;
28766;SDS011;15921;52.034;20.650;2023-03-31T02:18:55;11.85;;;6.63;;
28766;SDS011;15921;52.034;20.650;2023-03-31T02:21:27;12.55;;;6.82;;
28766;SDS011;15921;52.034;20.650;2023-03-31T02:23:56;12.77;;;7.00;;
28766;SDS011;15921;52.034;20.650;2023-03-31T02:26:27;11.80;;;7.13;;
28766;SDS011;15921;52.034;20.650;2023-03-31T02:28:59;10.90;;;7.00;;
28766;SDS011;15921;52.034;20.650;2023-03-31T02:31:32;9.60;;;6.95;;
28766;SDS011;15921;52.034;20.650;2023-03-31T02:34:06;11.23;;;7.43;;
28766;SDS011;15921;52.034;20.650;2023-03-31T02:36:33;11.88;;;7.25;;
28766;SDS011;15921;52.034;20.650;2023-03-31T02:39:02;15.75;;;7.50;;
28766;SDS011;15921;52.034;20.650;2023-03-31T02:41:31;13.67;;;8.17;;
28766;SDS011;15921;52.034;20.650;2023-03-31T02:43:57;12.27;;;7.93;;
28766;SDS011;15921;52.034;20.650;2023-03-31T02:46:23;12.98;;;7.68;;
28766;SDS011;15921;52.034;20.650;2023-03-31T02:48:50;14.23;;;8.55;;
28766;SDS011;15921;52.034;20.650;2023-03-31T02:51:24;14.43;;;8.52;;
28766;SDS011;15921;52.034;20.650;2023-03-31T02:54:10;13.73;;;8.43;;
28766;SDS011;15921;52.034;20.650;2023-03-31T03:08:14;16.48;;;9.18;;
28766;SDS011;15921;52.034;20.650;2023-03-31T03:11:04;16.38;;;9.15;;
28766;SDS011;15921;52.034;20.650;2023-03-31T03:13:46;19.67;;;10.25;;
28766;SDS011;15921;52.034;20.650;2023-03-31T03:18:44;16.17;;;9.98;;
28766;SDS011;15921;52.034;20.650;2023-03-31T03:21:27;18.40;;;9.77;;
28766;SDS011;15921;52.034;20.650;2023-03-31T03:23:53;17.52;;;10.90;;
28766;SDS011;15921;52.034;20.650;2023-03-31T03:26:19;24.30;;;11.07;;
28766;SDS011;15921;52.034;20.650;2023-03-31T03:28:47;20.55;;;10.95;;
28766;SDS011;15921;52.034;20.650;2023-03-31T03:31:14;15.15;;;10.45;;
28766;SDS011;15921;52.034;20.650;2023-03-31T03:33:41;17.95;;;10.48;;
28766;SDS011;15921;52.034;20.650;2023-03-31T03:36:07;18.90;;;10.25;;
28766;SDS011;15921;52.034;20.650;2023-03-31T03:38:33;15.82;;;10.30;;
28766;SDS011;15921;52.034;20.650;2023-03-31T03:40:58;24.35;;;10.20;;
28766;SDS011;15921;52.034;20.650;2023-03-31T03:43:24;17.67;;;11.02;;
28766;SDS011;15921;52.034;20.650;2023-03-31T03:45:50;17.15;;;10.02;;
28766;SDS011;15921;52.034;20.650;2023-03-31T03:48:16;17.55;;;9.98;;
28766;SDS011;15921;52.034;20.650;2023-03-31T03:50:44;18.50;;;10.23;;
28766;SDS011;15921;52.034;20.650;2023-03-31T03:53:10;18.90;;;10.93;;
28766;SDS011;15921;52.034;20.650;2023-03-31T03:55:37;20.55;;;10.85;;
28766;SDS011;15921;52.034;20.650;2023-03-31T03:58:03;19.35;;;10.95;;
28766;SDS011;15921;52.034;20.650;2023-03-31T04:00:28;17.98;;;10.10;;
28766;SDS011;15921;52.034;20.650;2023-03-31T04:02:55;19.23;;;11.23;;
28766;SDS011;15921;52.034;20.650;2023-03-31T04:05:21;20.70;;;11.10;;
28766;SDS011;15921;52.034;20.650;2023-03-31T04:07:47;20.55;;;11.30;;
28766;SDS011;15921;52.034;20.650;2023-03-31T04:10:12;23.02;;;11.18;;
28766;SDS011;15921;52.034;20.650;2023-03-31T04:12:38;20.17;;;10.25;;
28766;SDS011;15921;52.034;20.650;2023-03-31T04:15:04;25.30;;;11.90;;
28766;SDS011;15921;52.034;20.650;2023-03-31T04:17:30;20.30;;;11.80;;
28766;SDS011;15921;52.034;20.650;2023-03-31T04:20:08;18.48;;;12.13;;
28766;SDS011;15921;52.034;20.650;2023-03-31T04:22:35;22.90;;;12.48;;
28766;SDS011;15921;52.034;20.650;2023-03-31T04:25:08;22.45;;;11.65;;
28766;SDS011;15921;52.034;20.650;2023-03-31T04:27:48;24.83;;;12.20;;
28766;SDS011;15921;52.034;20.650;2023-03-31T04:30:18;19.10;;;11.73;;
28766;SDS011;15921;52.034;20.650;2023-03-31T04:32:49;26.00;;;11.20;;
28766;SDS011;15921;52.034;20.650;2023-03-31T04:35:17;21.92;;;11.80;;
28766;SDS011;15921;52.034;20.650;2023-03-31T04:37:45;21.77;;;11.90;;
28766;SDS011;15921;52.034;20.650;2023-03-31T04:40:15;22.60;;;12.25;;
28766;SDS011;15921;52.034;20.650;2023-03-31T04:42:44;16.88;;;11.43;;
28766;SDS011;15921;52.034;20.650;2023-03-31T04:45:10;18.77;;;10.68;;
28766;SDS011;15921;52.034;20.650;2023-03-31T04:47:36;21.08;;;12.25;;
28766;SDS011;15921;52.034;20.650;2023-03-31T04:50:02;19.08;;;12.20;;
28766;SDS011;15921;52.034;20.650;2023-03-31T04:52:29;18.10;;;11.80;;
28766;SDS011;15921;52.034;20.650;2023-03-31T04:54:55;22.58;;;13.15;;
28766;SDS011;15921;52.034;20.650;2023-03-31T04:57:20;22.92;;;13.93;;
28766;SDS011;15921;52.034;20.650;2023-03-31T04:59:46;20.65;;;13.57;;
28766;SDS011;15921;52.034;20.650;2023-03-31T05:02:12;21.10;;;13.20;;
28766;SDS011;15921;52.034;20.650;2023-03-31T05:04:37;23.92;;;13.98;;
28766;SDS011;15921;52.034;20.650;2023-03-31T05:07:03;23.30;;;14.07;;
28766;SDS011;15921;52.034;20.650;2023-03-31T05:09:29;22.58;;;14.43;;
28766;SDS011;15921;52.034;20.650;2023-03-31T05:11:55;23.02;;;15.15;;
28766;SDS011;15921;52.034;20.650;2023-03-31T05:14:21;29.48;;;13.35;;
28766;SDS011;15921;52.034;20.650;2023-03-31T05:16:47;26.42;;;14.32;;
28766;SDS011;15921;52.034;20.650;2023-03-31T05:19:13;28.88;;;14.90;;
28766;SDS011;15921;52.034;20.650;2023-03-31T05:21:38;22.27;;;13.80;;
28766;SDS011;15921;52.034;20.650;2023-03-31T05:24:04;20.52;;;14.25;;
28766;SDS011;15921;52.034;20.650;2023-03-31T05:26:30;25.05;;;14.15;;
28766;SDS011;15921;52.034;20.650;2023-03-31T05:28:56;25.50;;;14.70;;
28766;SDS011;15921;52.034;20.650;2023-03-31T05:31:22;24.23;;;14.40;;
28766;SDS011;15921;52.034;20.650;2023-03-31T05:33:47;28.70;;;14.95;;
28766;SDS011;15921;52.034;20.650;2023-03-31T05:36:14;26.38;;;15.88;;
28766;SDS011;15921;52.034;20.650;2023-03-31T05:38:41;26.25;;;16.83;;
28766;SDS011;15921;52.034;20.650;2023-03-31T05:41:08;27.15;;;16.42;;
28766;SDS011;15921;52.034;20.650;2023-03-31T05:43:35;27.55;;;17.77;;
28766;SDS011;15921;52.034;20.650;2023-03-31T05:46:02;28.23;;;18.38;;
28766;SDS011;15921;52.034;20.650;2023-03-31T05:48:28;29.60;;;18.63;;
28766;SDS011;15921;52.034;20.650;2023-03-31T05:50:57;30.77;;;19.73;;
28766;SDS011;15921;52.034;20.650;2023-03-31T05:53:24;34.33;;;19.63;;
28766;SDS011;15921;52.034;20.650;2023-03-31T05:55:55;33.80;;;19.67;;
28766;SDS011;15921;52.034;20.650;2023-03-31T05:58:22;34.40;;;19.53;;
28766;SDS011;15921;52.034;20.650;2023-03-31T06:00:48;35.35;;;21.48;;
28766;SDS011;15921;52.034;20.650;2023-03-31T06:03:14;29.90;;;19.15;;
28766;SDS011;15921;52.034;20.650;2023-03-31T06:05:45;33.60;;;21.63;;
28766;SDS011;15921;52.034;20.650;2023-03-31T06:08:13;34.58;;;21.63;;
28766;SDS011;15921;52.034;20.650;2023-03-31T06:10:38;33.25;;;20.85;;
28766;SDS011;15921;52.034;20.650;2023-03-31T06:13:06;36.45;;;22.20;;
28766;SDS011;15921;52.034;20.650;2023-03-31T06:15:32;37.13;;;21.75;;
28766;SDS011;15921;52.034;20.650;2023-03-31T06:17:58;42.67;;;23.80;;
28766;SDS011;15921;52.034;20.650;2023-03-31T06:20:23;43.53;;;24.83;;
28766;SDS011;15921;52.034;20.650;2023-03-31T06:22:49;40.35;;;24.45;;
28766;SDS011;15921;52.034;20.650;2023-03-31T06:25:15;39.83;;;24.40;;
28766;SDS011;15921;52.034;20.650;2023-03-31T06:27:41;39.05;;;24.52;;
28766;SDS011;15921;52.034;20.650;2023-03-31T06:30:07;40.45;;;26.13;;
28766;SDS011;15921;52.034;20.650;2023-03-31T06:32:33;41.10;;;25.88;;
28766;SDS011;15921;52.034;20.650;2023-03-31T06:34:58;43.95;;;26.30;;
28766;SDS011;15921;52.034;20.650;2023-03-31T06:37:24;45.20;;;25.92;;
28766;SDS011;15921;52.034;20.650;2023-03-31T06:39:50;43.42;;;26.92;;
28766;SDS011;15921;52.034;20.650;2023-03-31T06:42:16;39.08;;;24.83;;
28766;SDS011;15921;52.034;20.650;2023-03-31T06:44:41;38.53;;;25.17;;
28766;SDS011;15921;52.034;20.650;2023-03-31T06:47:07;42.28;;;24.77;;
28766;SDS011;15921;52.034;20.650;2023-03-31T06:49:33;39.75;;;24.65;;
28766;SDS011;15921;52.034;20.650;2023-03-31T06:51:58;37.25;;;23.52;;
28766;SDS011;15921;52.034;20.650;2023-03-31T06:54:25;37.50;;;23.33;;
28766;SDS011;15921;52.034;20.650;2023-03-31T06:56:51;36.03;;;23.15;;
28766;SDS011;15921;52.034;20.650;2023-03-31T06:59:16;33.13;;;22.30;;
28766;SDS011;15921;52.034;20.650;2023-03-31T07:01:42;34.20;;;21.75;;
28766;SDS011;15921;52.034;20.650;2023-03-31T07:04:10;33.78;;;21.02;;
28766;SDS011;15921;52.034;20.650;2023-03-31T07:06:35;34.55;;;20.77;;
28766;SDS011;15921;52.034;20.650;2023-03-31T07:09:01;29.15;;;18.60;;
28766;SDS011;15921;52.034;20.650;2023-03-31T07:11:28;40.10;;;18.55;;
28766;SDS011;15921;52.034;20.650;2023-03-31T07:13:54;28.70;;;18.73;;
28766;SDS011;15921;52.034;20.650;2023-03-31T07:16:20;28.95;;;18.63;;
28766;SDS011;15921;52.034;20.650;2023-03-31T07:18:46;27.83;;;18.00;;
28766;SDS011;15921;52.034;20.650;2023-03-31T07:21:12;32.60;;;17.80;;
28766;SDS011;15921;52.034;20.650;2023-03-31T07:23:37;25.35;;;15.93;;
28766;SDS011;15921;52.034;20.650;2023-03-31T07:26:03;25.63;;;17.13;;
28766;SDS011;15921;52.034;20.650;2023-03-31T07:28:30;24.27;;;16.70;;
28766;SDS011;15921;52.034;20.650;2023-03-31T07:30:56;27.52;;;16.40;;
28766;SDS011;15921;52.034;20.650;2023-03-31T07:33:22;25.63;;;16.70;;
28766;SDS011;15921;52.034;20.650;2023-03-31T07:35:48;26.85;;;15.80;;
28766;SDS011;15921;52.034;20.650;2023-03-31T07:38:13;22.90;;;15.23;;
28766;SDS011;15921;52.034;20.650;2023-03-31T07:40:39;21.83;;;13.93;;
28766;SDS011;15921;52.034;20.650;2023-03-31T07:43:07;26.52;;;14.32;;
28766;SDS011;15921;52.034;20.650;2023-03-31T07:45:34;23.52;;;14.02;;
28766;SDS011;15921;52.034;20.650;2023-03-31T07:48:00;22.48;;;14.05;;
28766;SDS011;15921;52.034;20.650;2023-03-31T07:50:25;23.70;;;13.63;;
28766;SDS011;15921;52.034;20.650;2023-03-31T07:52:51;18.67;;;12.68;;
28766;SDS011;15921;52.034;20.650;2023-03-31T07:55:17;27.90;;;14.10;;
28766;SDS011;15921;52.034;20.650;2023-03-31T07:57:44;21.00;;;13.23;;
28766;SDS011;15921;52.034;20.650;2023-03-31T08:00:11;19.45;;;12.63;;
28766;SDS011;15921;52.034;20.650;2023-03-31T08:02:38;21.58;;;11.48;;
28766;SDS011;15921;52.034;20.650;2023-03-31T08:05:06;18.85;;;11.60;;
28766;SDS011;15921;52.034;20.650;2023-03-31T08:07:34;18.35;;;9.98;;
28766;SDS011;15921;52.034;20.650;2023-03-31T08:10:01;16.33;;;10.95;;
28766;SDS011;15921;52.034;20.650;2023-03-31T08:12:31;17.77;;;10.65;;
28766;SDS011;15921;52.034;20.650;2023-03-31T08:14:57;15.27;;;10.40;;
28766;SDS011;15921;52.034;20.650;2023-03-31T08:17:23;17.35;;;11.30;;
28766;SDS011;15921;52.034;20.650;2023-03-31T08:19:48;17.20;;;10.68;;
28766;SDS011;15921;52.034;20.650;2023-03-31T08:22:16;18.05;;;10.45;;
28766;SDS011;15921;52.034;20.650;2023-03-31T08:24:42;16.25;;;9.75;;
28766;SDS011;15921;52.034;20.650;2023-03-31T08:27:07;20.20;;;10.13;;
28766;SDS011;15921;52.034;20.650;2023-03-31T08:29:33;19.92;;;9.57;;
28766;SDS011;15921;52.034;20.650;2023-03-31T08:31:59;14.95;;;8.60;;
28766;SDS011;15921;52.034;20.650;2023-03-31T08:34:25;14.38;;;8.27;;
28766;SDS011;15921;52.034;20.650;2023-03-31T08:36:51;16.42;;;7.85;;
28766;SDS011;15921;52.034;20.650;2023-03-31T08:39:17;14.75;;;8.07;;
28766;SDS011;15921;52.034;20.650;2023-03-31T08:42:02;17.95;;;8.25;;
28766;SDS011;15921;52.034;20.650;2023-03-31T08:44:44;10.77;;;6.72;;
28766;SDS011;15921;52.034;20.650;2023-03-31T08:47:33;15.65;;;8.15;;
28766;SDS011;15921;52.034;20.650;2023-03-31T08:50:05;13.13;;;7.40;;
28766;SDS011;15921;52.034;20.650;2023-03-31T08:52:44;13.90;;;7.40;;
28766;SDS011;15921;52.034;20.650;2023-03-31T08:55:19;10.95;;;6.05;;
28766;SDS011;15921;52.034;20.650;2023-03-31T09:00:21;10.90;;;6.23;;
28766;SDS011;15921;52.034;20.650;2023-03-31T09:05:45;11.85;;;6.05;;
28766;SDS011;15921;52.034;20.650;2023-03-31T09:10:57;15.55;;;7.60;;
28766;SDS011;15921;52.034;20.650;2023-03-31T09:18:59;12.18;;;6.03;;
28766;SDS011;15921;52.034;20.650;2023-03-31T09:21:27;12.27;;;5.60;;
28766;SDS011;15921;52.034;20.650;2023-03-31T09:23:57;12.25;;;6.03;;
28766;SDS011;15921;52.034;20.650;2023-03-31T09:29:21;11.63;;;5.82;;
28766;SDS011;15921;52.034;20.650;2023-03-31T09:32:22;13.02;;;6.03;;
28766;SDS011;15921;52.034;20.650;2023-03-31T09:34:55;10.85;;;5.22;;
28766;SDS011;15921;52.034;20.650;2023-03-31T09:37:26;14.77;;;5.80;;
28766;SDS011;15921;52.034;20.650;2023-03-31T09:39:55;11.07;;;5.10;;
28766;SDS011;15921;52.034;20.650;2023-03-31T09:42:23;10.55;;;4.85;;
28766;SDS011;15921;52.034;20.650;2023-03-31T09:44:49;8.90;;;5.30;;
28766;SDS011;15921;52.034;20.650;2023-03-31T09:47:18;8.20;;;4.95;;
28766;SDS011;15921;52.034;20.650;2023-03-31T09:49:52;9.75;;;4.60;;
28766;SDS011;15921;52.034;20.650;2023-03-31T09:57:46;8.50;;;4.68;;
28766;SDS011;15921;52.034;20.650;2023-03-31T10:05:25;13.18;;;5.80;;
28766;SDS011;15921;52.034;20.650;2023-03-31T10:11:23;15.02;;;4.78;;
28766;SDS011;15921;52.034;20.650;2023-03-31T10:13:35;12.40;;;4.63;;
28766;SDS011;15921;52.034;20.650;2023-03-31T10:16:06;11.13;;;5.05;;
28766;SDS011;15921;52.034;20.650;2023-03-31T10:18:37;11.73;;;4.57;;
28766;SDS011;15921;52.034;20.650;2023-03-31T10:21:06;14.35;;;4.88;;
28766;SDS011;15921;52.034;20.650;2023-03-31T10:23:47;12.75;;;4.65;;
28766;SDS011;15921;52.034;20.650;2023-03-31T10:26:16;8.90;;;4.15;;
28766;SDS011;15921;52.034;20.650;2023-03-31T10:28:45;13.23;;;4.78;;
28766;SDS011;15921;52.034;20.650;2023-03-31T10:31:14;11.25;;;4.68;;
28766;SDS011;15921;52.034;20.650;2023-03-31T10:33:44;12.27;;;4.50;;
28766;SDS011;15921;52.034;20.650;2023-03-31T10:36:15;10.50;;;4.25;;
28766;SDS011;15921;52.034;20.650;2023-03-31T10:38:47;7.57;;;4.45;;
28766;SDS011;15921;52.034;20.650;2023-03-31T10:41:19;11.20;;;4.22;;
28766;SDS011;15921;52.034;20.650;2023-03-31T10:43:47;7.50;;;4.22;;
28766;SDS011;15921;52.034;20.650;2023-03-31T10:46:16;10.23;;;4.68;;
28766;SDS011;15921;52.034;20.650;2023-03-31T10:48:42;8.20;;;4.57;;
28766;SDS011;15921;52.034;20.650;2023-03-31T10:53:51;9.43;;;4.68;;
28766;SDS011;15921;52.034;20.650;2023-03-31T11:13:12;10.23;;;4.70;;
28766;SDS011;15921;52.034;20.650;2023-03-31T11:15:50;8.30;;;4.32;;
28766;SDS011;15921;52.034;20.650;2023-03-31T11:18:35;8.65;;;4.45;;
28766;SDS011;15921;52.034;20.650;2023-03-31T11:26:57;8.88;;;4.40;;
28766;SDS011;15921;52.034;20.650;2023-03-31T11:35:02;11.00;;;4.25;;
28766;SDS011;15921;52.034;20.650;2023-03-31T11:45:52;8.52;;;3.92;;
28766;SDS011;15921;52.034;20.650;2023-03-31T11:48:37;6.32;;;3.72;;
28766;SDS011;15921;52.034;20.650;2023-03-31T11:51:15;8.10;;;3.30;;
28766;SDS011;15921;52.034;20.650;2023-03-31T11:53:45;7.72;;;3.42;;
28766;SDS011;15921;52.034;20.650;2023-03-31T11:56:12;8.68;;;3.30;;
28766;SDS011;15921;52.034;20.650;2023-03-31T11:58:52;10.07;;;3.22;;
28766;SDS011;15921;52.034;20.650;2023-03-31T12:01:25;7.55;;;3.00;;
28766;SDS011;15921;52.034;20.650;2023-03-31T12:06:59;6.75;;;3.17;;
28766;SDS011;15921;52.034;20.650;2023-03-31T12:09:54;8.87;;;2.87;;
28766;SDS011;15921;52.034;20.650;2023-03-31T12:12:39;10.13;;;3.28;;
28766;SDS011;15921;52.034;20.650;2023-03-31T12:15:26;6.15;;;2.63;;
28766;SDS011;15921;52.034;20.650;2023-03-31T12:18:07;6.93;;;2.63;;
28766;SDS011;15921;52.034;20.650;2023-03-31T12:20:34;8.23;;;3.00;;
28766;SDS011;15921;52.034;20.650;2023-03-31T12:23:04;10.27;;;2.70;;
28766;SDS011;15921;52.034;20.650;2023-03-31T12:25:58;7.80;;;2.67;;
28766;SDS011;15921;52.034;20.650;2023-03-31T12:28:33;8.20;;;3.13;;
28766;SDS011;15921;52.034;20.650;2023-03-31T12:31:01;6.35;;;2.72;;
28766;SDS011;15921;52.034;20.650;2023-03-31T12:33:32;8.35;;;2.50;;
28766;SDS011;15921;52.034;20.650;2023-03-31T12:47:08;8.93;;;2.67;;
28766;SDS011;15921;52.034;20.650;2023-03-31T12:50:04;7.90;;;2.30;;
28766;SDS011;15921;52.034;20.650;2023-03-31T12:56:02;7.35;;;2.55;;
28766;SDS011;15921;52.034;20.650;2023-03-31T13:08:59;5.20;;;2.53;;
28766;SDS011;15921;52.034;20.650;2023-03-31T13:11:51;5.95;;;2.33;;
28766;SDS011;15921;52.034;20.650;2023-03-31T13:14:21;4.05;;;2.10;;
28766;SDS011;15921;52.034;20.650;2023-03-31T13:16:48;11.32;;;3.10;;
28766;SDS011;15921;52.034;20.650;2023-03-31T13:22:00;9.38;;;2.60;;
28766;SDS011;15921;52.034;20.650;2023-03-31T13:24:28;6.55;;;2.53;;
28766;SDS011;15921;52.034;20.650;2023-03-31T13:26:56;7.00;;;2.80;;
28766;SDS011;15921;52.034;20.650;2023-03-31T13:29:42;7.90;;;2.97;;
28766;SDS011;15921;52.034;20.650;2023-03-31T13:44:35;6.57;;;3.10;;
28766;SDS011;15921;52.034;20.650;2023-03-31T13:54:12;10.65;;;3.30;;
28766;SDS011;15921;52.034;20.650;2023-03-31T14:08:07;7.22;;;2.90;;
28766;SDS011;15921;52.034;20.650;2023-03-31T14:10:48;8.13;;;2.65;;
28766;SDS011;15921;52.034;20.650;2023-03-31T14:13:17;6.13;;;2.78;;
28766;SDS011;15921;52.034;20.650;2023-03-31T14:15:54;8.65;;;2.78;;
28766;SDS011;15921;52.034;20.650;2023-03-31T14:18:26;5.75;;;2.45;;
28766;SDS011;15921;52.034;20.650;2023-03-31T14:20:55;5.22;;;2.47;;
28766;SDS011;15921;52.034;20.650;2023-03-31T14:23:42;4.35;;;2.35;;
28766;SDS011;15921;52.034;20.650;2023-03-31T14:37:32;13.27;;;3.50;;
28766;SDS011;15921;52.034;20.650;2023-03-31T14:39:59;8.88;;;4.05;;
28766;SDS011;15921;52.034;20.650;2023-03-31T14:42:39;10.60;;;3.90;;
28766;SDS011;15921;52.034;20.650;2023-03-31T14:45:22;8.18;;;3.78;;
28766;SDS011;15921;52.034;20.650;2023-03-31T14:47:53;8.48;;;4.57;;
28766;SDS011;15921;52.034;20.650;2023-03-31T14:50:20;7.65;;;3.83;;
28766;SDS011;15921;52.034;20.650;2023-03-31T14:52:51;8.23;;;4.45;;
28766;SDS011;15921;52.034;20.650;2023-03-31T14:55:20;8.57;;;4.25;;
28766;SDS011;15921;52.034;20.650;2023-03-31T14:57:48;10.13;;;4.50;;
28766;SDS011;15921;52.034;20.650;2023-03-31T15:00:21;9.43;;;5.70;;
28766;SDS011;15921;52.034;20.650;2023-03-31T15:02:51;13.02;;;6.30;;
28766;SDS011;15921;52.034;20.650;2023-03-31T15:05:27;12.30;;;6.57;;
28766;SDS011;15921;52.034;20.650;2023-03-31T15:07:59;8.90;;;5.40;;
28766;SDS011;15921;52.034;20.650;2023-03-31T15:13:00;9.68;;;4.97;;
28766;SDS011;15921;52.034;20.650;2023-03-31T15:15:31;9.23;;;4.80;;
28766;SDS011;15921;52.034;20.650;2023-03-31T15:17:57;10.82;;;5.65;;
28766;SDS011;15921;52.034;20.650;2023-03-31T15:20:30;12.30;;;6.97;;
28766;SDS011;15921;52.034;20.650;2023-03-31T15:23:01;11.23;;;5.70;;
28766;SDS011;15921;52.034;20.650;2023-03-31T15:25:42;7.97;;;4.65;;
28766;SDS011;15921;52.034;20.650;2023-03-31T15:28:09;10.77;;;4.45;;
28766;SDS011;15921;52.034;20.650;2023-03-31T15:30:40;10.90;;;4.37;;
28766;SDS011;15921;52.034;20.650;2023-03-31T15:33:07;6.28;;;3.97;;
28766;SDS011;15921;52.034;20.650;2023-03-31T15:35:40;5.25;;;3.70;;
28766;SDS011;15921;52.034;20.650;2023-03-31T15:38:08;8.32;;;4.03;;
28766;SDS011;15921;52.034;20.650;2023-03-31T15:40:39;8.55;;;4.28;;
28766;SDS011;15921;52.034;20.650;2023-03-31T15:43:27;9.43;;;5.45;;
28766;SDS011;15921;52.034;20.650;2023-03-31T15:45:55;6.88;;;4.82;;
28766;SDS011;15921;52.034;20.650;2023-03-31T15:48:24;9.98;;;5.35;;
28766;SDS011;15921;52.034;20.650;2023-03-31T15:56:54;6.80;;;4.03;;
28766;SDS011;15921;52.034;20.650;2023-03-31T15:59:02;11.70;;;4.97;;
28766;SDS011;15921;52.034;20.650;2023-03-31T16:01:41;7.22;;;4.45;;
28766;SDS011;15921;52.034;20.650;2023-03-31T16:04:10;6.90;;;4.10;;
28766;SDS011;15921;52.034;20.650;2023-03-31T16:12:32;4.32;;;3.33;;
28766;SDS011;15921;52.034;20.650;2023-03-31T16:15:32;6.80;;;3.58;;
28766;SDS011;15921;52.034;20.650;2023-03-31T16:20:41;5.13;;;2.67;;
28766;SDS011;15921;52.034;20.650;2023-03-31T16:23:48;7.68;;;3.00;;
28766;SDS011;15921;52.034;20.650;2023-03-31T16:26:08;4.45;;;3.00;;
28766;SDS011;15921;52.034;20.650;2023-03-31T16:28:35;5.65;;;3.38;;
28766;SDS011;15921;52.034;20.650;2023-03-31T16:31:02;4.03;;;2.67;;
28766;SDS011;15921;52.034;20.650;2023-03-31T16:33:29;5.63;;;2.67;;
28766;SDS011;15921;52.034;20.650;2023-03-31T16:36:15;5.40;;;2.63;;
28766;SDS011;15921;52.034;20.650;2023-03-31T16:38:41;4.88;;;3.03;;
28766;SDS011;15921;52.034;20.650;2023-03-31T16:41:07;7.80;;;3.03;;
28766;SDS011;15921;52.034;20.650;2023-03-31T16:43:33;4.72;;;2.85;;
28766;SDS011;15921;52.034;20.650;2023-03-31T16:46:00;4.28;;;3.05;;
28766;SDS011;15921;52.034;20.650;2023-03-31T16:48:28;6.68;;;3.10;;
28766;SDS011;15921;52.034;20.650;2023-03-31T16:50:57;8.00;;;3.17;;
28766;SDS011;15921;52.034;20.650;2023-03-31T16:53:25;5.38;;;3.33;;
28766;SDS011;15921;52.034;20.650;2023-03-31T16:55:52;11.30;;;6.65;;
28766;SDS011;15921;52.034;20.650;2023-03-31T16:58:19;16.38;;;6.85;;
28766;SDS011;15921;52.034;20.650;2023-03-31T17:00:47;19.58;;;8.23;;
28766;SDS011;15921;52.034;20.650;2023-03-31T17:03:14;14.35;;;6.80;;
28766;SDS011;15921;52.034;20.650;2023-03-31T17:05:44;13.07;;;6.60;;
28766;SDS011;15921;52.034;20.650;2023-03-31T17:08:11;14.70;;;6.72;;
28766;SDS011;15921;52.034;20.650;2023-03-31T17:10:38;19.85;;;7.63;;
28766;SDS011;15921;52.034;20.650;2023-03-31T17:13:05;14.43;;;7.00;;
28766;SDS011;15921;52.034;20.650;2023-03-31T17:15:31;13.35;;;7.50;;
28766;SDS011;15921;52.034;20.650;2023-03-31T17:18:00;13.35;;;7.78;;
28766;SDS011;15921;52.034;20.650;2023-03-31T17:20:27;15.88;;;8.57;;
28766;SDS011;15921;52.034;20.650;2023-03-31T17:22:54;15.13;;;9.68;;
28766;SDS011;15921;52.034;20.650;2023-03-31T17:25:21;15.07;;;8.02;;
28766;SDS011;15921;52.034;20.650;2023-03-31T17:27:47;14.73;;;8.23;;
28766;SDS011;15921;52.034;20.650;2023-03-31T17:30:12;13.38;;;7.18;;
28766;SDS011;15921;52.034;20.650;2023-03-31T17:32:38;14.05;;;7.03;;
28766;SDS011;15921;52.034;20.650;2023-03-31T17:35:05;11.85;;;7.45;;
28766;SDS011;15921;52.034;20.650;2023-03-31T17:37:32;10.88;;;6.53;;
28766;SDS011;15921;52.034;20.650;2023-03-31T17:39:58;14.88;;;7.25;;
28766;SDS011;15921;52.034;20.650;2023-03-31T17:42:24;17.30;;;7.50;;
28766;SDS011;15921;52.034;20.650;2023-03-31T17:44:50;15.18;;;6.85;;